createdAt,value
2018-01-17T00:02:16.294Z,1.65
2018-01-17T00:04:43.813Z,2.00
2018-01-17T00:07:11.289Z,1.80
2018-01-17T00:09:39.694Z,1.92
2018-01-17T00:12:07.169Z,2.00
2018-01-17T00:14:35.281Z,1.50
2018-01-17T00:17:02.789Z,1.73
2018-01-17T00:19:30.968Z,1.95
2018-01-17T00:21:58.529Z,1.60
2018-01-17T00:24:26.738Z,2.22
2018-01-17T00:26:54.257Z,2.10
2018-01-17T00:29:23.733Z,1.85
2018-01-17T00:31:51.253Z,1.75
2018-01-17T00:34:18.721Z,1.60
2018-01-17T00:36:46.423Z,1.85
2018-01-17T00:39:15.591Z,1.80
2018-01-17T00:41:43.073Z,2.08
2018-01-17T00:44:11.322Z,1.70
2018-01-17T00:46:39.294Z,2.05
2018-01-17T00:49:08.281Z,1.75
2018-01-17T00:51:36.337Z,1.87
2018-01-17T00:54:05.490Z,1.80
2018-01-17T00:56:33.726Z,2.00
2018-01-17T00:59:02.098Z,1.52
2018-01-17T01:01:32.833Z,2.50
2018-01-17T01:04:01.215Z,2.00
2018-01-17T01:06:30.460Z,1.70
2018-01-17T01:08:58.558Z,1.50
2018-01-17T01:11:28.114Z,1.40
2018-01-17T01:13:56.243Z,1.83
2018-01-17T01:16:23.828Z,1.60
2018-01-17T01:18:51.370Z,2.20
2018-01-17T01:21:19.617Z,2.28
2018-01-17T01:23:47.568Z,1.87
2018-01-17T01:26:15.806Z,2.03
2018-01-17T01:28:44.074Z,2.00
2018-01-17T01:31:14.921Z,1.58
2018-01-17T01:33:43.376Z,2.10
2018-01-17T01:36:13.092Z,2.00
2018-01-17T01:38:42.273Z,1.60
2018-01-17T01:41:11.241Z,2.03
2018-01-17T01:43:41.494Z,2.33
2018-01-17T01:46:10.318Z,1.55
2018-01-17T01:48:37.969Z,1.87
2018-01-17T01:51:05.457Z,1.40
2018-01-17T01:53:33.848Z,1.90
2018-01-17T01:56:02.125Z,1.52
2018-01-17T01:58:30.376Z,1.85
2018-01-17T02:00:59.373Z,1.80
2018-01-17T02:03:27.017Z,1.95
2018-01-17T02:05:55.471Z,1.62
2018-01-17T02:08:22.959Z,1.83
2018-01-17T02:10:51.288Z,1.80
2018-01-17T02:13:21.425Z,1.40
2018-01-17T02:15:49.732Z,2.08
2018-01-17T02:18:17.213Z,1.90
2018-01-17T02:20:44.723Z,1.70
2018-01-17T02:23:13.988Z,1.98
2018-01-17T02:25:41.505Z,1.50
2018-01-17T02:28:11.418Z,1.73
2018-01-17T02:30:40.689Z,1.80
2018-01-17T02:33:08.837Z,1.92
2018-01-17T02:35:37.635Z,1.95
2018-01-17T02:38:05.873Z,2.00
2018-01-17T02:40:40.005Z,1.55
2018-01-17T02:43:07.982Z,2.25
2018-01-17T02:45:35.533Z,1.90
2018-01-17T02:48:05.536Z,1.65
2018-01-17T02:50:33.041Z,1.80
2018-01-17T02:53:00.537Z,1.85
2018-01-17T02:55:28.034Z,2.22
2018-01-17T02:57:55.501Z,2.28
2018-01-17T03:00:24.297Z,1.95
2018-01-17T03:02:52.556Z,1.87
2018-01-17T03:05:20.793Z,2.25
2018-01-17T03:07:51.573Z,2.22
2018-01-17T03:10:19.957Z,2.22
2018-01-17T03:12:47.442Z,2.97
2018-01-17T03:15:14.922Z,2.00
2018-01-17T03:20:18.254Z,1.70
2018-01-17T03:22:46.350Z,1.80
2018-01-17T03:25:15.301Z,1.95
2018-01-17T03:27:42.990Z,1.92
2018-01-17T03:30:10.482Z,1.62
2018-01-17T03:32:38.717Z,1.80
2018-01-17T03:35:06.238Z,1.87
2018-01-17T03:37:34.533Z,2.40
2018-01-17T03:40:02.626Z,1.92
2018-01-17T03:42:30.142Z,1.67
2018-01-17T03:44:57.991Z,2.85
2018-01-17T03:47:27.454Z,2.12
2018-01-17T03:49:54.948Z,1.80
2018-01-17T03:52:23.666Z,2.10
2018-01-17T03:54:52.025Z,2.55
2018-01-17T03:57:19.973Z,2.65
2018-01-17T03:59:49.009Z,2.10
2018-01-17T04:02:17.934Z,1.80
2018-01-17T04:04:45.427Z,1.50
2018-01-17T04:07:13.675Z,2.00
2018-01-17T04:09:42.101Z,1.70
2018-01-17T04:12:09.589Z,1.50
2018-01-17T04:14:37.066Z,1.85
2018-01-17T04:17:04.831Z,1.50
2018-01-17T04:19:32.347Z,1.50
2018-01-17T04:21:59.883Z,1.85
2018-01-17T04:24:27.950Z,1.70
2018-01-17T04:26:56.229Z,2.20
2018-01-17T04:29:24.474Z,1.67
2018-01-17T04:31:52.613Z,1.65
2018-01-17T04:34:20.925Z,1.90
2018-01-17T04:36:50.101Z,1.80
2018-01-17T04:39:18.345Z,1.60
2018-01-17T04:41:45.845Z,2.10
2018-01-17T04:44:13.337Z,2.30
2018-01-17T04:46:43.139Z,1.60
2018-01-17T04:49:11.192Z,2.03
2018-01-17T04:51:39.166Z,1.55
2018-01-17T04:54:06.990Z,1.70
2018-01-17T04:56:34.516Z,2.33
2018-01-17T04:59:02.769Z,2.15
2018-01-17T05:04:05.345Z,1.77
2018-01-17T05:06:32.821Z,1.85
2018-01-17T05:09:00.316Z,1.87
2018-01-17T05:11:29.951Z,1.50
2018-01-17T05:13:57.849Z,1.98
2018-01-17T05:16:26.317Z,1.50
2018-01-17T05:18:53.820Z,1.55
2018-01-17T05:21:21.290Z,2.87
2018-01-17T05:23:49.534Z,2.00
2018-01-17T05:26:17.021Z,1.60
2018-01-17T05:28:45.881Z,1.60
2018-01-17T05:31:14.262Z,1.87
2018-01-17T05:33:43.483Z,1.62
2018-01-17T05:36:17.962Z,1.85
2018-01-17T05:38:47.083Z,2.22
2018-01-17T05:41:15.011Z,1.90
2018-01-17T05:43:43.942Z,1.90
2018-01-17T05:46:11.482Z,1.60
2018-01-17T05:48:38.974Z,2.15
2018-01-17T05:51:09.201Z,1.60
2018-01-17T05:53:38.084Z,1.70
2018-01-17T05:56:05.554Z,2.15
2018-01-17T05:58:33.795Z,1.67
2018-01-17T06:01:02.364Z,1.70
2018-01-17T06:03:29.824Z,2.00
2018-01-17T06:05:57.297Z,2.05
2018-01-17T06:08:24.789Z,2.35
2018-01-17T06:10:53.912Z,1.90
2018-01-17T06:13:21.405Z,2.45
2018-01-17T06:15:48.908Z,1.85
2018-01-17T06:18:17.154Z,2.55
2018-01-17T06:20:45.556Z,2.47
2018-01-17T06:23:14.738Z,2.12
2018-01-17T06:25:42.226Z,3.28
2018-01-17T06:28:09.706Z,3.20
2018-01-17T06:30:38.450Z,2.10
2018-01-17T06:33:07.314Z,2.10
2018-01-17T06:35:35.270Z,2.00
2018-01-17T06:38:02.778Z,1.90
2018-01-17T06:40:35.531Z,2.45
2018-01-17T06:43:04.864Z,2.20
2018-01-17T06:45:33.189Z,2.22
2018-01-17T06:48:00.694Z,2.00
2018-01-17T06:50:29.462Z,2.47
2018-01-17T06:52:58.268Z,2.65
2018-01-17T06:55:26.550Z,2.20
2018-01-17T06:57:54.825Z,2.62
2018-01-17T07:00:23.954Z,2.42
2018-01-17T07:02:53.510Z,2.42
2018-01-17T07:05:21.631Z,2.05
2018-01-17T07:07:50.630Z,2.30
2018-01-17T07:10:20.377Z,2.20
2018-01-17T07:12:48.793Z,2.03
2018-01-17T07:15:17.410Z,2.35
2018-01-17T07:17:45.805Z,2.03
2018-01-17T07:20:13.865Z,2.37
2018-01-17T07:22:42.154Z,2.67
2018-01-17T07:25:09.801Z,3.10
2018-01-17T07:27:37.333Z,2.30
2018-01-17T07:30:05.497Z,1.98
2018-01-17T07:32:34.330Z,3.33
2018-01-17T07:35:01.906Z,2.40
2018-01-17T07:37:30.833Z,2.28
2018-01-17T07:40:00.346Z,2.35
2018-01-17T07:42:27.866Z,2.33
2018-01-17T07:44:57.507Z,2.33
2018-01-17T07:47:25.138Z,2.20
2018-01-17T07:49:54.711Z,2.70
2018-01-17T07:52:22.643Z,2.72
2018-01-17T07:54:50.126Z,2.65
2018-01-17T07:57:18.294Z,2.22
2018-01-17T07:59:45.777Z,2.30
2018-01-17T08:02:16.722Z,3.35
2018-01-17T08:04:46.422Z,2.60
2018-01-17T08:07:14.270Z,2.33
2018-01-17T08:09:44.618Z,2.80
2018-01-17T08:12:12.379Z,2.53
2018-01-17T08:14:42.028Z,2.87
2018-01-17T08:17:09.553Z,2.65
2018-01-17T08:19:39.041Z,2.28
2018-01-17T08:22:07.561Z,3.62
2018-01-17T08:24:35.880Z,2.28
2018-01-17T08:27:04.117Z,2.55
2018-01-17T08:29:31.617Z,2.80
2018-01-17T08:31:59.921Z,2.37
2018-01-17T08:34:28.718Z,3.22
2018-01-17T08:36:56.272Z,2.62
2018-01-17T08:39:25.093Z,2.53
2018-01-17T08:41:53.195Z,3.33
2018-01-17T08:44:20.859Z,2.60
2018-01-17T08:46:48.426Z,3.58
2018-01-17T08:49:18.253Z,2.10
2018-01-17T08:51:46.156Z,3.00
2018-01-17T08:54:18.834Z,2.80
2018-01-17T08:56:47.038Z,3.00
2018-01-17T08:59:15.208Z,2.10
2018-01-17T09:01:43.455Z,2.97
2018-01-17T09:04:12.164Z,4.22
2018-01-17T09:06:40.986Z,3.60
2018-01-17T09:09:09.283Z,3.17
2018-01-17T09:11:36.850Z,3.15
2018-01-17T09:14:05.151Z,2.42
2018-01-17T09:16:33.408Z,2.53
2018-01-17T09:19:01.175Z,2.62
2018-01-17T09:21:30.314Z,2.12
2018-01-17T09:23:57.957Z,2.80
2018-01-17T09:26:26.585Z,2.90
2018-01-17T09:28:54.870Z,2.37
2018-01-17T09:31:24.047Z,2.55
2018-01-17T09:33:53.646Z,2.20
2018-01-17T09:36:21.882Z,2.92
2018-01-17T09:38:49.948Z,3.15
2018-01-17T09:41:18.769Z,2.45
2018-01-17T09:43:51.211Z,4.25
2018-01-17T09:46:19.616Z,3.03
2018-01-17T09:48:47.774Z,2.80
2018-01-17T09:51:17.213Z,3.00
2018-01-17T09:53:47.752Z,2.90
2018-01-17T09:56:16.617Z,2.65
2018-01-17T09:58:44.114Z,3.53
2018-01-17T10:01:11.638Z,3.30
2018-01-17T10:03:40.699Z,3.08
2018-01-17T10:06:08.774Z,2.53
2018-01-17T10:08:36.341Z,3.22
2018-01-17T10:11:04.533Z,3.47
2018-01-17T10:13:34.801Z,3.40
2018-01-17T10:16:05.996Z,3.30
2018-01-17T10:21:10.105Z,3.10
2018-01-17T10:23:37.610Z,2.45
2018-01-17T10:26:05.092Z,3.03
2018-01-17T10:28:37.913Z,2.10
2018-01-17T10:31:07.874Z,3.62
2018-01-17T10:33:36.763Z,3.25
2018-01-17T10:36:05.137Z,2.70
2018-01-17T10:38:33.076Z,3.33
2018-01-17T10:41:01.679Z,3.17
2018-01-17T10:43:30.572Z,3.05
2018-01-17T10:45:58.264Z,3.62
2018-01-17T10:48:27.151Z,3.05
2018-01-17T10:50:54.697Z,3.20
2018-01-17T10:53:24.221Z,3.30
2018-01-17T10:55:52.674Z,3.42
2018-01-17T10:58:20.170Z,3.35
2018-01-17T11:00:49.889Z,3.17
2018-01-17T11:03:19.212Z,4.62
2018-01-17T11:05:47.497Z,2.30
2018-01-17T11:08:15.023Z,2.17
2018-01-17T11:10:43.281Z,3.55
2018-01-17T11:13:10.801Z,3.75
2018-01-17T11:15:41.208Z,3.90
2018-01-17T11:18:09.504Z,3.17
2018-01-17T11:20:37.934Z,3.30
2018-01-17T11:23:07.657Z,3.53
2018-01-17T11:25:35.889Z,3.80
2018-01-17T11:28:04.810Z,2.75
2018-01-17T11:30:34.749Z,4.07
2018-01-17T11:33:02.955Z,3.35
2018-01-17T11:35:34.065Z,2.97
2018-01-17T11:38:02.827Z,3.17
2018-01-17T11:40:32.002Z,3.25
2018-01-17T11:43:01.454Z,2.97
2018-01-17T11:45:29.027Z,4.57
2018-01-17T11:47:58.225Z,4.97
2018-01-17T11:50:26.578Z,4.53
2018-01-17T11:52:55.054Z,3.45
2018-01-17T11:55:23.817Z,4.10
2018-01-17T11:57:52.110Z,4.87
2018-01-17T12:00:21.311Z,3.35
2018-01-17T12:02:48.985Z,3.95
2018-01-17T12:05:18.071Z,3.75
2018-01-17T12:07:46.215Z,3.55
2018-01-17T12:10:14.091Z,4.32
2018-01-17T12:12:41.630Z,5.18
2018-01-17T12:15:09.127Z,3.55
2018-01-17T12:17:36.917Z,3.92
2018-01-17T12:20:05.339Z,4.03
2018-01-17T12:22:33.588Z,4.47
2018-01-17T12:25:01.873Z,3.25
2018-01-17T12:27:30.855Z,3.60
2018-01-17T12:29:59.610Z,3.80
2018-01-17T12:32:27.125Z,3.37
2018-01-17T12:34:56.654Z,4.12
2018-01-17T12:37:25.821Z,3.75
2018-01-17T12:39:53.428Z,3.28
2018-01-17T12:42:23.407Z,4.50
2018-01-17T12:44:51.723Z,3.33
2018-01-17T12:47:20.567Z,3.15
2018-01-17T12:49:50.164Z,3.42
2018-01-17T12:52:18.480Z,3.42
2018-01-17T12:54:46.625Z,4.47
2018-01-17T12:57:14.110Z,3.40
2018-01-17T12:59:43.545Z,3.47
2018-01-17T13:02:12.886Z,3.22
2018-01-17T13:04:41.795Z,3.87
2018-01-17T13:07:11.051Z,3.17
2018-01-17T13:09:39.551Z,2.33
2018-01-17T13:12:07.109Z,3.53
2018-01-17T13:14:36.728Z,3.33
2018-01-17T13:17:11.158Z,3.03
2018-01-17T13:19:38.698Z,2.03
2018-01-17T13:22:07.250Z,3.00
2018-01-17T13:24:36.072Z,2.78
2018-01-17T13:27:06.165Z,2.85
2018-01-17T13:29:34.909Z,2.83
2018-01-17T13:32:02.435Z,3.10
2018-01-17T13:34:30.863Z,3.28
2018-01-17T13:36:59.160Z,2.53
2018-01-17T13:39:27.470Z,2.65
2018-01-17T13:41:55.819Z,2.97
2018-01-17T13:44:25.402Z,2.60
2018-01-17T13:46:55.038Z,2.95
2018-01-17T13:49:24.596Z,3.03
2018-01-17T13:51:52.094Z,2.95
2018-01-17T13:54:25.244Z,2.72
2018-01-17T13:56:56.375Z,3.28
2018-01-17T13:59:25.616Z,2.28
2018-01-17T14:01:53.195Z,4.50
2018-01-17T14:04:22.912Z,2.92
2018-01-17T14:06:50.403Z,2.75
2018-01-17T14:09:20.515Z,3.17
2018-01-17T14:11:49.711Z,3.22
2018-01-17T14:14:18.567Z,2.40
2018-01-17T14:16:47.821Z,2.80
2018-01-17T14:19:17.681Z,2.92
2018-01-17T14:21:47.457Z,2.83
2018-01-17T14:24:15.678Z,3.30
2018-01-17T14:26:45.481Z,2.72
2018-01-17T14:29:13.449Z,3.28
2018-01-17T14:31:43.165Z,3.50
2018-01-17T14:34:11.787Z,3.37
2018-01-17T14:36:41.589Z,2.67
2018-01-17T14:39:09.606Z,5.00
2018-01-17T14:41:39.277Z,3.05
2018-01-17T14:44:06.765Z,2.75
2018-01-17T14:46:34.267Z,2.72
2018-01-17T14:49:04.596Z,3.30
2018-01-17T14:51:33.064Z,3.65
2018-01-17T14:54:01.310Z,2.85
2018-01-17T14:56:30.673Z,3.45
2018-01-17T14:59:00.639Z,3.08
2018-01-17T15:01:29.221Z,3.20
2018-01-17T15:03:58.906Z,3.20
2018-01-17T15:06:28.267Z,3.08
2018-01-17T15:08:58.682Z,3.60
2018-01-17T15:11:26.756Z,2.92
2018-01-17T15:13:55.478Z,2.75
2018-01-17T15:16:24.841Z,2.85
2018-01-17T15:18:54.858Z,3.12
2018-01-17T15:21:22.354Z,3.17
2018-01-17T15:23:51.433Z,2.42
2018-01-17T15:26:19.342Z,2.78
2018-01-17T15:28:49.466Z,2.37
2018-01-17T15:31:17.673Z,3.00
2018-01-17T15:33:47.950Z,3.92
2018-01-17T15:36:15.518Z,2.92
2018-01-17T15:38:43.794Z,2.62
2018-01-17T15:41:13.278Z,3.55
2018-01-17T15:43:41.559Z,2.40
2018-01-17T15:46:09.047Z,4.10
2018-01-17T15:48:36.533Z,2.87
2018-01-17T15:51:05.650Z,2.53
2018-01-17T15:53:35.515Z,2.65
2018-01-17T15:56:04.953Z,2.72
2018-01-17T15:58:33.197Z,2.70
2018-01-17T16:01:02.258Z,2.30
2018-01-17T16:03:29.989Z,3.08
2018-01-17T16:05:59.138Z,2.97
2018-01-17T16:08:27.214Z,2.70
2018-01-17T16:10:55.397Z,3.08
2018-01-17T16:13:22.873Z,3.60
2018-01-17T16:15:50.349Z,3.12
2018-01-17T16:18:19.222Z,2.75
2018-01-17T16:20:48.274Z,2.47
2018-01-17T16:23:16.593Z,2.80
2018-01-17T16:25:45.915Z,4.00
2018-01-17T16:28:14.174Z,2.50
2018-01-17T16:30:43.472Z,2.90
2018-01-17T16:33:12.581Z,2.80
2018-01-17T16:35:40.834Z,2.72
2018-01-17T16:38:10.027Z,4.22
2018-01-17T16:40:39.873Z,3.47
2018-01-17T16:43:09.072Z,4.28
2018-01-17T16:45:37.552Z,3.87
2018-01-17T16:48:06.453Z,3.95
2018-01-17T16:50:34.722Z,3.35
2018-01-17T16:53:05.047Z,4.37
2018-01-17T16:55:34.902Z,4.87
2018-01-17T16:58:02.424Z,4.03
2018-01-17T17:00:30.434Z,3.60
2018-01-17T17:02:58.342Z,4.53
2018-01-17T17:05:26.606Z,4.20
2018-01-17T17:07:55.050Z,6.55
2018-01-17T17:10:23.262Z,5.25
2018-01-17T17:12:51.631Z,4.10
2018-01-17T17:15:19.231Z,4.40
2018-01-17T17:17:47.474Z,5.93
2018-01-17T17:20:15.917Z,4.15
2018-01-17T17:22:44.018Z,5.53
2018-01-17T17:25:11.499Z,5.18
2018-01-17T17:27:39.774Z,5.20
2018-01-17T17:30:07.297Z,5.35
2018-01-17T17:32:36.653Z,5.85
2018-01-17T17:35:05.399Z,5.97
2018-01-17T17:37:33.486Z,5.40
2018-01-17T17:40:01.421Z,7.72
2018-01-17T17:42:28.898Z,4.80
2018-01-17T17:44:57.130Z,6.80
2018-01-17T17:47:26.372Z,5.80
2018-01-17T17:49:54.177Z,6.43
2018-01-17T17:52:22.446Z,5.87
2018-01-17T17:54:51.349Z,5.95
2018-01-17T17:57:20.926Z,5.53
2018-01-17T17:59:48.474Z,6.60
2018-01-17T18:02:16.769Z,5.75
2018-01-17T18:04:44.833Z,8.13
2018-01-17T18:07:13.243Z,6.90
2018-01-17T18:09:42.111Z,7.15
2018-01-17T18:12:10.187Z,6.22
2018-01-17T18:14:37.701Z,6.95
2018-01-17T18:17:05.886Z,5.78
2018-01-17T18:19:34.416Z,5.75
2018-01-17T18:22:03.548Z,6.75
2018-01-17T18:24:31.588Z,6.05
2018-01-17T18:27:00.671Z,7.05
2018-01-17T18:29:28.161Z,4.70
2018-01-17T18:31:56.596Z,6.93
2018-01-17T18:34:25.134Z,6.18
2018-01-17T18:36:52.607Z,6.00
2018-01-17T18:39:20.954Z,6.95
2018-01-17T18:41:50.513Z,5.90
2018-01-17T18:44:18.589Z,5.37
2018-01-17T18:46:46.069Z,6.70
2018-01-17T18:49:14.907Z,7.15
2018-01-17T18:51:43.364Z,5.75
2018-01-17T18:54:14.375Z,6.50
2018-01-17T18:56:43.366Z,5.93
2018-01-17T18:59:12.933Z,4.97
2018-01-17T19:01:41.049Z,6.90
2018-01-17T19:04:10.659Z,6.25
2018-01-17T19:06:39.465Z,6.60
2018-01-17T19:09:08.609Z,5.75
2018-01-17T19:11:36.294Z,6.30
2018-01-17T19:14:03.875Z,5.00
2018-01-17T19:16:31.986Z,5.70
2018-01-17T19:19:01.217Z,5.75
2018-01-17T19:21:33.569Z,5.45
2018-01-17T19:24:01.469Z,6.37
2018-01-17T19:26:29.018Z,6.55
2018-01-17T19:28:56.594Z,6.97
2018-01-17T19:31:24.689Z,5.47
2018-01-17T19:33:53.217Z,4.87
2018-01-17T19:36:22.745Z,5.12
2018-01-17T19:38:50.405Z,5.28
2018-01-17T19:41:18.118Z,6.80
2018-01-17T19:43:46.547Z,5.80
2018-01-17T19:46:14.157Z,5.62
2018-01-17T19:48:42.102Z,6.18
2018-01-17T19:51:11.214Z,7.20
2018-01-17T19:53:39.911Z,5.45
2018-01-17T19:56:08.409Z,5.72
2018-01-17T19:58:38.593Z,4.75
2018-01-17T20:01:07.702Z,6.32
2018-01-17T20:03:35.946Z,6.53
2018-01-17T20:06:03.421Z,5.37
2018-01-17T20:08:32.534Z,6.03
2018-01-17T20:11:01.205Z,7.05
2018-01-17T20:13:29.284Z,5.10
2018-01-17T20:16:02.084Z,5.40
2018-01-17T20:18:29.670Z,5.55
2018-01-17T20:20:58.674Z,5.68
2018-01-17T20:23:27.357Z,5.43
2018-01-17T20:25:54.833Z,5.60
2018-01-17T20:28:25.747Z,4.90
2018-01-17T20:30:54.138Z,5.40
2018-01-17T20:33:21.618Z,6.57
2018-01-17T20:35:49.253Z,4.32
2018-01-17T20:38:17.002Z,5.28
2018-01-17T20:40:45.751Z,5.90
2018-01-17T20:43:21.909Z,5.30
2018-01-17T20:45:50.991Z,4.65
2018-01-17T20:48:19.366Z,5.82
2018-01-17T20:50:47.725Z,4.47
2018-01-17T20:53:16.014Z,4.87
2018-01-17T20:55:43.650Z,4.20
2018-01-17T20:58:12.593Z,4.57
2018-01-17T21:00:40.141Z,5.50
2018-01-17T21:03:08.262Z,4.57
2018-01-17T21:05:36.958Z,5.60
2018-01-17T21:08:04.499Z,5.40
2018-01-17T21:10:32.801Z,5.80
2018-01-17T21:13:03.301Z,5.45
2018-01-17T21:15:31.699Z,5.07
2018-01-17T21:18:01.366Z,4.70
2018-01-17T21:20:32.329Z,4.97
2018-01-17T21:23:04.921Z,5.25
2018-01-17T21:25:40.142Z,4.72
2018-01-17T21:28:30.638Z,4.60
2018-01-17T21:30:58.338Z,5.12
2018-01-17T21:33:26.954Z,4.60
2018-01-17T21:35:55.090Z,4.70
2018-01-17T21:38:23.158Z,4.60
2018-01-17T21:40:50.687Z,3.95
2018-01-17T21:43:24.541Z,5.30
2018-01-17T21:45:52.034Z,5.72
2018-01-17T21:48:21.309Z,5.60
2018-01-17T21:50:50.426Z,3.83
2018-01-17T21:53:19.198Z,4.12
2018-01-17T21:55:46.932Z,3.87
2018-01-17T21:58:14.568Z,3.78
2018-01-17T22:00:42.069Z,4.85
2018-01-17T22:03:10.095Z,3.67
2018-01-17T22:05:38.563Z,4.37
2018-01-17T22:08:06.855Z,4.10
2018-01-17T22:10:34.346Z,3.90
2018-01-17T22:13:04.374Z,5.22
2018-01-17T22:15:36.396Z,5.25
2018-01-17T22:18:04.386Z,4.82
2018-01-17T22:20:33.494Z,4.90
2018-01-17T22:23:01.130Z,5.30
2018-01-17T22:25:29.993Z,4.87
2018-01-17T22:27:59.828Z,4.80
2018-01-17T22:30:27.373Z,6.82
2018-01-17T22:33:00.256Z,4.55
2018-01-17T22:35:28.621Z,4.35
2018-01-17T22:37:56.930Z,5.95
2018-01-17T22:40:26.720Z,5.00
2018-01-17T22:42:54.225Z,4.57
2018-01-17T22:45:21.741Z,4.57
2018-01-17T22:47:50.362Z,4.95
2018-01-17T22:50:20.437Z,4.95
2018-01-17T22:52:48.632Z,4.50
2018-01-17T22:55:19.121Z,5.53
2018-01-17T22:57:47.956Z,3.22
2018-01-17T23:00:19.177Z,4.10
2018-01-17T23:02:50.591Z,4.47
2018-01-17T23:05:19.090Z,3.67
2018-01-17T23:07:48.050Z,4.85
2018-01-17T23:10:19.984Z,4.93
2018-01-17T23:12:47.985Z,4.82
2018-01-17T23:15:17.017Z,4.65
2018-01-17T23:17:44.510Z,3.78
2018-01-17T23:20:13.679Z,4.50
2018-01-17T23:22:42.499Z,4.35
2018-01-17T23:25:12.108Z,4.75
2018-01-17T23:27:42.110Z,4.20
2018-01-17T23:30:10.370Z,3.80
2018-01-17T23:32:37.847Z,4.40
2018-01-17T23:35:06.413Z,4.28
2018-01-17T23:37:36.066Z,3.78
2018-01-17T23:40:03.537Z,4.72
2018-01-17T23:42:31.963Z,3.40
2018-01-17T23:45:04.895Z,3.95
2018-01-17T23:47:33.794Z,5.00
2018-01-17T23:50:02.148Z,3.35
2018-01-17T23:52:31.222Z,3.47
2018-01-17T23:57:53.954Z,3.87
